createdAt,value
2018-07-27T00:00:46.464Z,93220.89
2018-07-27T00:03:14.568Z,93226.82
2018-07-27T00:05:42.585Z,93226.82
2018-07-27T00:08:10.653Z,93231.98
2018-07-27T00:10:38.720Z,93227.57
2018-07-27T00:13:06.753Z,93230.50
2018-07-27T00:15:34.789Z,93232.36
2018-07-27T00:18:02.878Z,93233.36
2018-07-27T00:20:30.937Z,93236.97
2018-07-27T00:22:58.969Z,93234.36
2018-07-27T00:25:27.082Z,93236.29
2018-07-27T00:27:55.209Z,93242.72
2018-07-27T00:30:23.245Z,93239.09
2018-07-27T00:32:51.324Z,93241.84
2018-07-27T00:35:19.494Z,93244.33
2018-07-27T00:37:47.545Z,93250.01
2018-07-27T00:40:15.687Z,93248.98
2018-07-27T00:42:43.743Z,93248.49
2018-07-27T00:45:11.757Z,93255.84
2018-07-27T00:47:39.797Z,93257.81
2018-07-27T00:50:08.096Z,93256.31
2018-07-27T00:52:36.297Z,93254.67
2018-07-27T00:55:04.399Z,93256.84
2018-07-27T00:57:32.441Z,93259.87
2018-07-27T01:00:00.443Z,93252.44
2018-07-27T01:02:28.449Z,93251.12
2018-07-27T01:04:56.436Z,93243.27
2018-07-27T01:07:24.419Z,93245.43
2018-07-27T01:09:52.397Z,93241.22
2018-07-27T01:12:20.468Z,93245.06
2018-07-27T01:14:48.570Z,93241.22
2018-07-27T01:17:16.675Z,93240.40
2018-07-27T01:19:44.730Z,93243.41
2018-07-27T01:22:12.913Z,93250.80
2018-07-27T01:24:41.021Z,93249.91
2018-07-27T01:27:08.987Z,93247.49
2018-07-27T01:29:37.052Z,93247.37
2018-07-27T01:32:05.208Z,93248.36
2018-07-27T01:34:33.331Z,93243.74
2018-07-27T01:37:01.326Z,93238.58
2018-07-27T01:39:29.368Z,93236.66
2018-07-27T01:41:57.380Z,93240.17
2018-07-27T01:44:25.365Z,93238.34
2018-07-27T01:46:53.426Z,93234.75
2018-07-27T01:49:21.397Z,93238.63
2018-07-27T01:51:49.450Z,93229.05
2018-07-27T01:54:17.576Z,93235.03
2018-07-27T01:56:45.814Z,93236.59
2018-07-27T01:59:14.389Z,93231.11
2018-07-27T02:01:42.520Z,93232.57
2018-07-27T02:04:10.504Z,93232.31
2018-07-27T02:06:38.630Z,93228.77
2018-07-27T02:09:08.494Z,93226.16
2018-07-27T02:11:36.473Z,93230.41
2018-07-27T02:14:04.506Z,93231.92
2018-07-27T02:16:32.526Z,93229.23
2018-07-27T02:19:00.592Z,93223.09
2018-07-27T02:21:28.589Z,93219.73
2018-07-27T02:23:56.615Z,93222.35
2018-07-27T02:26:24.636Z,93217.98
2018-07-27T02:28:52.659Z,93219.91
2018-07-27T02:31:20.749Z,93223.43
2018-07-27T02:33:48.901Z,93214.49
2018-07-27T02:36:16.944Z,93208.48
2018-07-27T02:38:45.150Z,93211.59
2018-07-27T02:41:13.246Z,93209.02
2018-07-27T02:43:41.281Z,93202.78
2018-07-27T02:46:09.337Z,93208.27
2018-07-27T02:48:37.389Z,93205.03
2018-07-27T02:51:05.376Z,93211.31
2018-07-27T02:53:33.502Z,93218.19
2018-07-27T02:56:01.596Z,93217.73
2018-07-27T02:58:29.584Z,93215.93
2018-07-27T03:00:57.642Z,93220.48
2018-07-27T03:03:25.797Z,93226.61
2018-07-27T03:05:53.966Z,93227.54
2018-07-27T03:08:22.058Z,93225.80
2018-07-27T03:10:50.252Z,93229.03
2018-07-27T03:13:18.251Z,93227.30
2018-07-27T03:15:46.424Z,93232.62
2018-07-27T03:18:14.530Z,93234.03
2018-07-27T03:20:42.619Z,93227.20
2018-07-27T03:23:10.638Z,93230.50
2018-07-27T03:25:38.669Z,93237.82
2018-07-27T03:28:06.882Z,93245.37
2018-07-27T03:30:34.968Z,93247.66
2018-07-27T03:33:03.094Z,93246.75
2018-07-27T03:35:31.383Z,93240.69
2018-07-27T03:37:59.531Z,93245.53
2018-07-27T03:40:27.818Z,93242.53
2018-07-27T03:42:55.950Z,93244.78
2018-07-27T03:45:24.144Z,93242.59
2018-07-27T03:47:53.096Z,93240.17
2018-07-27T03:50:21.160Z,93244.78
2018-07-27T03:52:49.241Z,93246.95
2018-07-27T03:55:17.427Z,93251.22
2018-07-27T03:57:45.889Z,93247.22
2018-07-27T04:00:14.077Z,93242.80
2018-07-27T04:02:42.557Z,93246.95
2018-07-27T04:05:10.726Z,93240.96
2018-07-27T04:07:39.220Z,93238.17
2018-07-27T04:10:07.648Z,93232.40
2018-07-27T04:12:36.057Z,93231.97
2018-07-27T04:15:04.391Z,93232.74
2018-07-27T04:17:33.236Z,93235.75
2018-07-27T04:20:01.522Z,93232.86
2018-07-27T04:22:29.778Z,93233.91
2018-07-27T04:24:57.876Z,93234.19
2018-07-27T04:27:27.278Z,93234.80
2018-07-27T04:29:56.318Z,93241.72
2018-07-27T04:32:24.479Z,93245.30
2018-07-27T04:34:52.592Z,93247.45
2018-07-27T04:37:20.769Z,93246.06
2018-07-27T04:39:48.919Z,93247.52
2018-07-27T04:42:16.995Z,93250.98
2018-07-27T04:44:45.069Z,93247.67
2018-07-27T04:47:13.160Z,93250.44
2018-07-27T04:49:41.322Z,93245.66
2018-07-27T04:52:09.651Z,93244.20
2018-07-27T04:54:37.688Z,93251.04
2018-07-27T04:57:05.880Z,93249.87
2018-07-27T04:59:33.981Z,93251.64
2018-07-27T05:02:02.103Z,93250.95
2018-07-27T05:04:30.221Z,93248.47
2018-07-27T05:06:58.377Z,93251.70
2018-07-27T05:09:26.448Z,93252.50
2018-07-27T05:11:54.771Z,93254.27
2018-07-27T05:14:22.916Z,93247.07
2018-07-27T05:16:51.037Z,93252.33
2018-07-27T05:19:19.241Z,93260.97
2018-07-27T05:21:47.419Z,93259.67
2018-07-27T05:24:15.588Z,93264.12
2018-07-27T05:26:43.861Z,93261.68
2018-07-27T05:29:12.170Z,93258.23
2018-07-27T05:31:40.454Z,93254.45
2018-07-27T05:34:08.966Z,93261.71
2018-07-27T05:36:37.305Z,93268.52
2018-07-27T05:39:08.578Z,93263.72
2018-07-27T05:41:36.839Z,93268.97
2018-07-27T05:44:05.332Z,93261.17
2018-07-27T05:46:33.539Z,93270.86
2018-07-27T05:49:01.846Z,93271.03
2018-07-27T05:51:30.093Z,93273.75
2018-07-27T05:53:58.708Z,93271.53
2018-07-27T05:56:27.282Z,93277.84
2018-07-27T05:58:55.921Z,93271.67
2018-07-27T06:01:24.128Z,93273.32
2018-07-27T06:03:52.504Z,93278.93
2018-07-27T06:06:20.759Z,93279.33
2018-07-27T06:08:49.004Z,93279.56
2018-07-27T06:11:17.310Z,93284.59
2018-07-27T06:13:45.515Z,93286.49
2018-07-27T06:16:13.930Z,93281.08
2018-07-27T06:18:42.060Z,93285.11
2018-07-27T06:21:10.769Z,93286.69
2018-07-27T06:23:39.279Z,93285.61
2018-07-27T06:26:07.591Z,93295.47
2018-07-27T06:28:35.874Z,93295.39
2018-07-27T06:31:04.164Z,93292.77
2018-07-27T06:33:32.476Z,93294.67
2018-07-27T06:36:00.973Z,93298.72
2018-07-27T06:38:29.339Z,93294.61
2018-07-27T06:40:57.660Z,93292.81
2018-07-27T06:43:26.064Z,93291.56
2018-07-27T06:45:54.388Z,93285.30
2018-07-27T06:48:22.672Z,93284.56
2018-07-27T06:50:51.590Z,93281.94
2018-07-27T06:53:19.958Z,93277.48
2018-07-27T06:55:48.148Z,93284.06
2018-07-27T06:58:16.612Z,93280.98
2018-07-27T07:00:44.877Z,93284.58
2018-07-27T07:03:13.142Z,93290.97
2018-07-27T07:05:41.347Z,93283.13
2018-07-27T07:08:09.465Z,93293.61
2018-07-27T07:10:37.658Z,93291.37
2018-07-27T07:13:05.904Z,93285.08
2018-07-27T07:15:34.265Z,93283.85
2018-07-27T07:18:02.497Z,93285.93
2018-07-27T07:20:30.731Z,93288.72
2018-07-27T07:22:59.044Z,93294.81
2018-07-27T07:25:27.466Z,93291.89
2018-07-27T07:27:55.622Z,93296.73
2018-07-27T07:30:23.660Z,93301.09
2018-07-27T07:32:51.940Z,93300.82
2018-07-27T07:35:20.135Z,93303.66
2018-07-27T07:37:48.446Z,93301.70
2018-07-27T07:40:16.697Z,93302.41
2018-07-27T07:42:44.898Z,93304.89
2018-07-27T07:45:13.191Z,93305.05
2018-07-27T07:47:41.399Z,93305.40
2018-07-27T07:50:09.740Z,93302.47
2018-07-27T07:52:37.836Z,93301.48
2018-07-27T07:55:06.310Z,93302.14
2018-07-27T07:57:35.055Z,93303.80
2018-07-27T08:00:04.613Z,93299.83
2018-07-27T08:02:33.006Z,93299.33
2018-07-27T08:05:01.216Z,93305.39
2018-07-27T08:07:29.779Z,93297.12
2018-07-27T08:09:58.065Z,93306.70
2018-07-27T08:12:26.352Z,93301.73
2018-07-27T08:14:54.898Z,93305.35
2018-07-27T08:17:23.465Z,93306.73
2018-07-27T08:19:51.674Z,93298.74
2018-07-27T08:22:19.891Z,93297.20
2018-07-27T08:24:48.325Z,93290.39
2018-07-27T08:27:16.451Z,93294.65
2018-07-27T08:29:45.746Z,93287.54
2018-07-27T08:32:14.317Z,93284.16
2018-07-27T08:34:42.841Z,93285.06
2018-07-27T08:37:11.206Z,93278.63
2018-07-27T08:39:40.727Z,93285.67
2018-07-27T08:42:08.998Z,93282.20
2018-07-27T08:44:38.623Z,93283.88
2018-07-27T08:47:06.900Z,93283.67
2018-07-27T08:49:35.165Z,93281.44
2018-07-27T08:52:03.528Z,93291.34
2018-07-27T08:54:31.970Z,93286.86
2018-07-27T08:57:00.468Z,93285.49
2018-07-27T08:59:28.776Z,93286.75
2018-07-27T09:01:57.113Z,93287.17
2018-07-27T09:04:25.375Z,93284.40
2018-07-27T09:06:53.544Z,93281.44
2018-07-27T09:09:21.845Z,93279.56
2018-07-27T09:11:50.355Z,93274.27
2018-07-27T09:14:18.829Z,93273.31
2018-07-27T09:16:47.114Z,93272.50
2018-07-27T09:19:16.075Z,93269.57
2018-07-27T09:21:44.454Z,93268.16
2018-07-27T09:24:12.833Z,93263.55
2018-07-27T09:26:41.040Z,93257.16
2018-07-27T09:29:09.247Z,93254.30
2018-07-27T09:31:37.746Z,93248.22
2018-07-27T09:34:06.062Z,93249.90
2018-07-27T09:36:34.277Z,93246.78
2018-07-27T09:39:02.867Z,93247.61
2018-07-27T09:41:31.182Z,93240.88
2018-07-27T09:43:59.784Z,93239.73
2018-07-27T09:46:28.186Z,93234.27
2018-07-27T09:48:56.725Z,93235.72
2018-07-27T09:51:25.397Z,93226.60
2018-07-27T09:53:54.174Z,93223.73
2018-07-27T09:56:22.612Z,93212.90
2018-07-27T09:58:51.674Z,93219.59
2018-07-27T10:01:22.854Z,93220.18
2018-07-27T10:03:51.739Z,93211.18
2018-07-27T10:06:20.275Z,93205.38
2018-07-27T10:08:48.982Z,93201.31
2018-07-27T10:11:19.531Z,93202.79
2018-07-27T10:13:48.387Z,93198.53
2018-07-27T10:16:16.771Z,93202.30
2018-07-27T10:18:45.292Z,93197.94
2018-07-27T10:21:13.667Z,93192.98
2018-07-27T10:23:41.894Z,93192.70
2018-07-27T10:26:10.124Z,93194.63
2018-07-27T10:28:38.417Z,93192.09
2018-07-27T10:31:06.837Z,93192.06
2018-07-27T10:33:35.053Z,93186.92
2018-07-27T10:36:03.681Z,93181.90
2018-07-27T10:38:32.151Z,93188.55
2018-07-27T10:41:00.550Z,93179.98
2018-07-27T10:43:28.951Z,93182.95
2018-07-27T10:45:57.206Z,93173.91
2018-07-27T10:48:25.634Z,93173.45
2018-07-27T10:50:54.787Z,93163.98
2018-07-27T10:53:23.067Z,93161.24
2018-07-27T10:55:51.779Z,93153.88
2018-07-27T10:58:20.168Z,93152.22
2018-07-27T11:00:48.460Z,93151.83
2018-07-27T11:03:17.157Z,93148.05
2018-07-27T11:05:45.380Z,93146.36
2018-07-27T11:08:13.804Z,93148.22
2018-07-27T11:10:42.062Z,93140.67
2018-07-27T11:13:10.365Z,93138.70
2018-07-27T11:15:38.643Z,93139.26
2018-07-27T11:18:07.011Z,93145.30
2018-07-27T11:20:35.206Z,93139.45
2018-07-27T11:23:03.363Z,93128.31
2018-07-27T11:25:31.814Z,93127.23
2018-07-27T11:28:00.159Z,93134.98
2018-07-27T11:30:28.546Z,93133.27
2018-07-27T11:32:56.881Z,93126.02
2018-07-27T11:35:25.168Z,93126.05
2018-07-27T11:37:53.452Z,93128.95
2018-07-27T11:40:21.683Z,93117.02
2018-07-27T11:42:50.152Z,93119.89
2018-07-27T11:45:18.612Z,93119.57
2018-07-27T11:47:47.088Z,93117.44
2018-07-27T11:50:16.181Z,93115.61
2018-07-27T11:52:44.446Z,93115.94
2018-07-27T11:55:12.974Z,93108.85
2018-07-27T11:57:41.340Z,93107.19
2018-07-27T12:00:09.532Z,93110.41
2018-07-27T12:02:37.824Z,93114.91
2018-07-27T12:05:06.071Z,93114.59
2018-07-27T12:07:34.500Z,93110.55
2018-07-27T12:10:02.851Z,93111.10
2018-07-27T12:12:31.180Z,93108.79
2018-07-27T12:14:59.970Z,93108.88
2018-07-27T12:17:28.176Z,93100.72
2018-07-27T12:19:56.475Z,93098.75
2018-07-27T12:22:24.720Z,93093.55
2018-07-27T12:24:53.136Z,93095.98
2018-07-27T12:27:21.261Z,93096.15
2018-07-27T12:29:50.189Z,93089.34
2018-07-27T12:32:18.502Z,93098.45
2018-07-27T12:34:46.740Z,93111.17
2018-07-27T12:37:15.060Z,93124.08
2018-07-27T12:39:43.433Z,93133.59
2018-07-27T12:42:11.854Z,93134.89
2018-07-27T12:44:40.006Z,93131.31
2018-07-27T12:47:08.258Z,93145.55
2018-07-27T12:49:36.745Z,93145.50
2018-07-27T12:52:05.051Z,93156.47
2018-07-27T12:54:33.199Z,93162.09
2018-07-27T12:57:02.190Z,93156.20
2018-07-27T12:59:30.945Z,93151.72
2018-07-27T13:01:58.981Z,93144.66
2018-07-27T13:04:27.132Z,93143.02
2018-07-27T13:06:55.698Z,93131.80
2018-07-27T13:09:23.980Z,93132.22
2018-07-27T13:11:52.143Z,93131.95
2018-07-27T13:14:20.526Z,93136.88
2018-07-27T13:16:51.180Z,93133.68
2018-07-27T13:19:19.856Z,93129.06
2018-07-27T13:21:48.298Z,93129.34
2018-07-27T13:24:16.562Z,93131.09
2018-07-27T13:26:45.051Z,93127.98
2018-07-27T13:29:13.283Z,93124.25
2018-07-27T13:31:56.230Z,93118.22
2018-07-27T13:34:35.474Z,93122.74
2018-07-27T13:37:04.033Z,93116.13
2018-07-27T13:39:33.048Z,93117.86
2018-07-27T13:42:02.385Z,93115.84
2018-07-27T13:44:31.870Z,93113.21
2018-07-27T13:47:00.503Z,93110.18
2018-07-27T13:49:29.061Z,93117.95
2018-07-27T13:51:57.962Z,93110.75
2018-07-27T13:54:26.926Z,93109.60
2018-07-27T13:56:55.442Z,93108.61
2018-07-27T13:59:24.088Z,93104.98
2018-07-27T14:01:52.473Z,93106.75
2018-07-27T14:04:20.730Z,93109.18
2018-07-27T14:06:50.386Z,93105.24
2018-07-27T14:09:18.694Z,93109.00
2018-07-27T14:11:46.940Z,93103.63
2018-07-27T14:14:15.220Z,93106.04
2018-07-27T14:16:43.575Z,93098.22
2018-07-27T14:19:12.620Z,93103.28
2018-07-27T14:21:41.023Z,93097.02
2018-07-27T14:24:09.176Z,93101.88
2018-07-27T14:26:37.378Z,93103.06
2018-07-27T14:29:05.840Z,93100.76
2018-07-27T14:31:34.088Z,93106.00
2018-07-27T14:34:02.349Z,93107.30
2018-07-27T14:36:30.552Z,93112.75
2018-07-27T14:38:58.777Z,93111.28
2018-07-27T14:41:27.518Z,93107.95
2018-07-27T14:43:55.956Z,93114.95
2018-07-27T14:46:24.162Z,93106.67
2018-07-27T14:48:52.912Z,93102.03
2018-07-27T14:51:21.571Z,93096.27
2018-07-27T14:53:49.819Z,93086.44
2018-07-27T14:56:18.107Z,93081.85
2018-07-27T14:58:46.344Z,93074.39
2018-07-27T15:01:14.449Z,93074.98
2018-07-27T15:03:42.590Z,93075.66
2018-07-27T15:06:10.696Z,93078.23
2018-07-27T15:08:38.802Z,93074.70
2018-07-27T15:11:07.666Z,93078.46
2018-07-27T15:13:36.222Z,93062.05
2018-07-27T15:16:04.811Z,93066.23
2018-07-27T15:18:33.012Z,93075.28
2018-07-27T15:21:01.243Z,93082.80
2018-07-27T15:23:29.287Z,93083.68
2018-07-27T15:25:57.414Z,93089.20
2018-07-27T15:28:25.539Z,93086.98
2018-07-27T15:30:53.760Z,93090.08
2018-07-27T15:33:21.936Z,93095.13
2018-07-27T15:35:50.258Z,93099.00
2018-07-27T15:38:18.394Z,93103.63
2018-07-27T15:40:46.745Z,93106.45
2018-07-27T15:43:14.995Z,93108.00
2018-07-27T15:45:43.187Z,93114.55
2018-07-27T15:48:11.444Z,93117.42
2018-07-27T15:50:39.706Z,93120.14
2018-07-27T15:53:07.797Z,93118.45
2018-07-27T15:55:35.924Z,93117.00
2018-07-27T15:58:04.268Z,93118.89
2018-07-27T16:00:32.360Z,93121.19
2018-07-27T16:11:35.576Z,93141.53
2018-07-27T16:14:04.273Z,93139.90
2018-07-27T16:16:32.356Z,93146.36
2018-07-27T16:19:00.548Z,93145.84
2018-07-27T16:21:28.773Z,93148.38
2018-07-27T16:23:56.880Z,93140.84
2018-07-27T16:26:25.062Z,93136.73
2018-07-27T16:28:53.156Z,93145.41
2018-07-27T16:31:21.585Z,93148.80
2018-07-27T16:33:49.884Z,93154.45
2018-07-27T16:36:17.966Z,93146.51
2018-07-27T16:38:46.027Z,93147.00
2018-07-27T16:41:14.394Z,93138.12
2018-07-27T16:43:42.727Z,93135.98
2018-07-27T16:46:10.932Z,93139.06
2018-07-27T16:48:39.165Z,93139.24
2018-07-27T16:51:07.269Z,93136.27
2018-07-27T16:53:35.346Z,93153.91
2018-07-27T16:56:07.248Z,93156.73
2018-07-27T16:58:37.134Z,93150.58
2018-07-27T17:01:06.636Z,93152.97
2018-07-27T17:03:36.209Z,93155.25
2018-07-27T17:06:04.779Z,93153.94
2018-07-27T17:08:33.129Z,93152.70
2018-07-27T17:11:01.254Z,93149.24
2018-07-27T17:13:29.508Z,93149.14
2018-07-27T17:15:57.642Z,93153.72
2018-07-27T17:18:25.927Z,93151.55
2018-07-27T17:20:54.198Z,93154.00
2018-07-27T17:23:22.528Z,93150.50
2018-07-27T17:25:50.892Z,93147.05
2018-07-27T17:28:19.022Z,93151.25
2018-07-27T17:30:47.334Z,93158.13
2018-07-27T17:33:15.593Z,93156.83
2018-07-27T17:35:43.815Z,93159.05
2018-07-27T17:38:12.032Z,93155.59
2018-07-27T17:40:40.519Z,93154.80
2018-07-27T17:43:08.876Z,93158.16
2018-07-27T17:45:37.018Z,93157.27
2018-07-27T17:48:05.180Z,93152.00
2018-07-27T17:50:33.503Z,93155.83
2018-07-27T17:53:01.833Z,93153.70
2018-07-27T17:55:30.127Z,93159.66
2018-07-27T17:57:58.490Z,93149.91
2018-07-27T18:00:26.720Z,93158.81
2018-07-27T18:02:54.880Z,93168.07
2018-07-27T18:05:23.422Z,93167.74
2018-07-27T18:07:52.029Z,93167.41
2018-07-27T18:10:20.348Z,93182.91
2018-07-27T18:12:48.568Z,93181.25
2018-07-27T18:15:16.864Z,93187.69
2018-07-27T18:17:46.144Z,93181.41
2018-07-27T18:20:14.915Z,93184.55
2018-07-27T18:22:44.240Z,93183.86
2018-07-27T18:25:16.291Z,93191.96
2018-07-27T18:27:45.433Z,93197.91
2018-07-27T18:30:13.877Z,93200.85
2018-07-27T18:32:42.217Z,93197.66
2018-07-27T18:35:10.511Z,93197.20
2018-07-27T18:37:39.532Z,93204.92
2018-07-27T18:40:09.176Z,93197.47
2018-07-27T18:42:37.437Z,93209.52
2018-07-27T18:45:06.733Z,93213.48
2018-07-27T18:47:34.943Z,93216.93
2018-07-27T18:50:03.231Z,93212.30
2018-07-27T18:52:31.502Z,93212.77
2018-07-27T18:54:59.778Z,93216.20
2018-07-27T18:57:28.127Z,93217.52
2018-07-27T18:59:56.525Z,93220.14
2018-07-27T19:02:25.071Z,93219.27
2018-07-27T19:04:53.517Z,93216.44
2018-07-27T19:07:21.869Z,93216.44
2018-07-27T19:09:50.315Z,93222.31
2018-07-27T19:12:18.611Z,93227.27
2018-07-27T19:14:47.010Z,93224.55
2018-07-27T19:17:15.393Z,93230.67
2018-07-27T19:19:43.668Z,93234.12
2018-07-27T19:22:12.123Z,93234.90
2018-07-27T19:24:40.730Z,93239.50
2018-07-27T19:27:09.323Z,93245.39
2018-07-27T19:29:37.738Z,93238.91
2018-07-27T19:32:06.336Z,93237.59
2018-07-27T19:34:34.741Z,93237.79
2018-07-27T19:37:03.031Z,93241.86
2018-07-27T19:39:31.298Z,93237.23
2018-07-27T19:41:59.485Z,93242.80
2018-07-27T19:44:27.747Z,93241.02
2018-07-27T19:46:55.900Z,93234.06
2018-07-27T19:49:24.541Z,93234.36
2018-07-27T19:51:52.931Z,93232.52
2018-07-27T19:54:21.076Z,93232.86
2018-07-27T19:56:49.189Z,93229.41
2018-07-27T19:59:17.285Z,93224.44
2018-07-27T20:01:45.516Z,93229.73
2018-07-27T20:04:13.738Z,93230.23
2018-07-27T20:06:41.912Z,93235.25
2018-07-27T20:09:11.131Z,93232.94
2018-07-27T20:11:39.679Z,93231.27
2018-07-27T20:14:08.050Z,93233.37
2018-07-27T20:16:36.186Z,93230.42
2018-07-27T20:19:04.359Z,93227.65
2018-07-27T20:21:32.707Z,93227.94
2018-07-27T20:24:01.016Z,93221.36
2018-07-27T20:26:29.408Z,93221.66
2018-07-27T20:28:57.597Z,93224.28
2018-07-27T20:31:25.798Z,93222.17
2018-07-27T20:33:54.155Z,93217.73
2018-07-27T20:36:22.398Z,93214.78
2018-07-27T20:38:50.575Z,93212.29
2018-07-27T20:41:18.939Z,93210.83
2018-07-27T20:43:47.061Z,93207.82
2018-07-27T20:46:15.670Z,93206.53
2018-07-27T20:48:43.889Z,93210.66
2018-07-27T20:51:12.706Z,93213.61
2018-07-27T20:53:40.919Z,93208.98
2018-07-27T20:56:09.084Z,93210.45
2018-07-27T20:58:37.194Z,93208.47
2018-07-27T21:01:05.318Z,93200.86
2018-07-27T21:03:33.480Z,93200.86
2018-07-27T21:06:01.645Z,93193.29
2018-07-27T21:08:29.787Z,93194.58
2018-07-27T21:10:57.955Z,93195.16
2018-07-27T21:13:26.458Z,93191.80
2018-07-27T21:15:54.788Z,93193.75
2018-07-27T21:18:22.949Z,93188.76
2018-07-27T21:20:51.148Z,93203.72
2018-07-27T21:23:19.243Z,93208.27
2018-07-27T21:25:47.362Z,93205.08
2018-07-27T21:28:15.548Z,93204.31
2018-07-27T21:30:43.633Z,93196.34
2018-07-27T21:33:11.642Z,93208.39
2018-07-27T21:35:40.993Z,93204.80
2018-07-27T21:38:09.834Z,93203.09
2018-07-27T21:40:37.983Z,93199.75
2018-07-27T21:43:06.119Z,93194.09
2018-07-27T21:45:34.200Z,93191.53
2018-07-27T21:48:02.320Z,93189.50
2018-07-27T21:50:30.411Z,93196.20
2018-07-27T21:52:58.500Z,93201.73
2018-07-27T21:55:26.557Z,93190.78
2018-07-27T21:57:54.840Z,93193.41
2018-07-27T22:00:22.952Z,93190.88
2018-07-27T22:02:51.056Z,93183.41
2018-07-27T22:05:19.177Z,93193.14
2018-07-27T22:07:51.710Z,93197.55
2018-07-27T22:10:19.826Z,93193.91
2018-07-27T22:12:48.040Z,93194.68
2018-07-27T22:15:21.254Z,93187.34
2018-07-27T22:17:49.704Z,93186.50
2018-07-27T22:20:17.755Z,93183.50
2018-07-27T22:22:46.227Z,93184.31
2018-07-27T22:25:14.216Z,93177.56
2018-07-27T22:27:42.556Z,93172.77
2018-07-27T22:30:11.560Z,93175.08
2018-07-27T22:32:39.651Z,93169.42
2018-07-27T22:35:08.063Z,93171.86
2018-07-27T22:37:36.929Z,93165.55
2018-07-27T22:40:05.664Z,93162.51
2018-07-27T22:42:33.817Z,93165.98
2018-07-27T22:45:02.038Z,93168.94
2018-07-27T22:47:30.467Z,93163.83
2018-07-27T22:49:58.543Z,93156.58
2018-07-27T22:52:26.818Z,93151.82
2018-07-27T22:54:54.887Z,93147.34
2018-07-27T22:57:22.923Z,93136.34
2018-07-27T22:59:50.952Z,93139.96
2018-07-27T23:02:19.110Z,93136.02
2018-07-27T23:04:47.173Z,93134.71
2018-07-27T23:07:15.314Z,93135.97
2018-07-27T23:09:43.429Z,93141.36
2018-07-27T23:12:11.520Z,93148.77
2018-07-27T23:14:39.644Z,93156.19
2018-07-27T23:17:07.758Z,93154.55
2018-07-27T23:19:35.911Z,93161.49
2018-07-27T23:22:04.127Z,93151.67
2018-07-27T23:24:32.217Z,93146.24
2018-07-27T23:27:00.357Z,93145.75
2018-07-27T23:29:28.476Z,93146.84
2018-07-27T23:31:56.488Z,93146.57
2018-07-27T23:34:24.579Z,93145.80
2018-07-27T23:36:52.760Z,93141.17
2018-07-27T23:39:20.826Z,93140.77
2018-07-27T23:41:48.860Z,93131.75
2018-07-27T23:44:16.915Z,93126.50
2018-07-27T23:46:44.933Z,93126.32
2018-07-27T23:49:12.966Z,93127.85
2018-07-27T23:51:41.080Z,93123.45
2018-07-27T23:54:09.175Z,93125.17
2018-07-27T23:56:37.223Z,93127.47
2018-07-27T23:59:05.457Z,93132.74
